createdAt,value
2018-03-12T00:00:31.084Z,10.24
2018-03-12T00:01:31.179Z,10.32
2018-03-12T00:02:31.272Z,10.26
2018-03-12T00:03:31.366Z,10.25
2018-03-12T00:04:31.464Z,10.22
2018-03-12T00:05:31.556Z,10.32
2018-03-12T00:06:31.655Z,10.32
2018-03-12T00:07:31.747Z,10.36
2018-03-12T00:08:31.856Z,10.32
2018-03-12T00:09:31.936Z,10.28
2018-03-12T00:10:32.032Z,10.34
2018-03-12T00:11:32.123Z,10.34
2018-03-12T00:12:32.221Z,10.30
2018-03-12T00:13:32.315Z,10.34
2018-03-12T00:14:32.411Z,10.28
2018-03-12T00:15:32.505Z,10.32
2018-03-12T00:16:32.603Z,10.17
2018-03-12T00:17:32.690Z,10.09
2018-03-12T00:18:32.794Z,10.09
2018-03-12T00:19:32.909Z,10.24
2018-03-12T00:20:33.009Z,10.24
2018-03-12T00:21:33.103Z,10.22
2018-03-12T00:22:33.199Z,10.24
2018-03-12T00:23:33.291Z,10.30
2018-03-12T00:24:33.387Z,10.28
2018-03-12T00:25:33.482Z,10.33
2018-03-12T00:26:33.579Z,10.34
2018-03-12T00:27:33.675Z,10.36
2018-03-12T00:28:33.769Z,10.30
2018-03-12T00:29:33.862Z,10.37
2018-03-12T00:30:33.960Z,10.28
2018-03-12T00:31:34.067Z,10.36
2018-03-12T00:32:34.166Z,10.32
2018-03-12T00:33:34.253Z,10.09
2018-03-12T00:34:34.345Z,9.97
2018-03-12T00:35:34.437Z,9.94
2018-03-12T00:36:34.533Z,9.66
2018-03-12T00:37:34.638Z,9.76
2018-03-12T00:38:34.722Z,9.56
2018-03-12T00:39:34.835Z,9.53
2018-03-12T00:40:34.927Z,9.38
2018-03-12T00:41:35.017Z,9.31
2018-03-12T00:42:35.113Z,9.40
2018-03-12T00:43:35.211Z,9.35
2018-03-12T00:44:35.304Z,9.32
2018-03-12T00:45:35.399Z,9.42
2018-03-12T00:46:35.489Z,9.49
2018-03-12T00:47:35.581Z,9.56
2018-03-12T00:48:35.676Z,9.46
2018-03-12T00:49:35.768Z,9.50
2018-03-12T00:50:35.861Z,9.49
2018-03-12T00:51:35.955Z,9.48
2018-03-12T00:52:36.045Z,9.56
2018-03-12T00:53:36.149Z,9.63
2018-03-12T00:54:36.234Z,9.57
2018-03-12T00:55:36.329Z,9.66
2018-03-12T00:56:36.465Z,9.70
2018-03-12T00:57:36.517Z,9.61
2018-03-12T00:58:36.612Z,9.45
2018-03-12T00:59:36.694Z,9.46
2018-03-12T01:00:36.786Z,9.48
2018-03-12T01:01:36.885Z,9.61
2018-03-12T01:02:36.975Z,9.56
2018-03-12T01:03:37.070Z,9.57
2018-03-12T01:04:37.165Z,9.58
2018-03-12T01:05:37.279Z,9.45
2018-03-12T01:06:37.375Z,9.53
2018-03-12T01:07:37.473Z,9.48
2018-03-12T01:08:37.571Z,9.58
2018-03-12T01:09:37.666Z,9.67
2018-03-12T01:10:37.768Z,9.76
2018-03-12T01:11:37.846Z,9.67
2018-03-12T01:12:37.939Z,9.85
2018-03-12T01:13:38.032Z,9.86
2018-03-12T01:14:38.123Z,9.83
2018-03-12T01:15:38.215Z,9.86
2018-03-12T01:16:38.310Z,10.00
2018-03-12T01:17:38.403Z,9.93
2018-03-12T01:18:38.503Z,10.06
2018-03-12T01:19:38.595Z,10.03
2018-03-12T01:20:38.687Z,9.96
2018-03-12T01:21:38.771Z,9.99
2018-03-12T01:22:38.861Z,10.09
2018-03-12T01:23:38.961Z,10.00
2018-03-12T01:24:39.049Z,10.10
2018-03-12T01:25:39.139Z,10.07
2018-03-12T01:26:39.233Z,10.14
2018-03-12T01:27:39.328Z,10.22
2018-03-12T01:28:39.421Z,10.19
2018-03-12T01:29:39.512Z,10.21
2018-03-12T01:30:39.606Z,10.22
2018-03-12T01:31:39.719Z,10.21
2018-03-12T01:32:39.817Z,10.18
2018-03-12T01:33:39.911Z,10.19
2018-03-12T01:34:40.004Z,10.19
2018-03-12T01:35:40.095Z,10.24
2018-03-12T01:36:40.197Z,10.19
2018-03-12T01:37:40.285Z,10.19
2018-03-12T01:38:40.371Z,10.24
2018-03-12T01:39:40.486Z,10.21
2018-03-12T01:40:40.582Z,10.15
2018-03-12T01:41:40.673Z,10.07
2018-03-12T01:42:40.771Z,9.96
2018-03-12T01:43:40.865Z,10.03
2018-03-12T01:44:40.964Z,10.01
2018-03-12T01:45:41.065Z,10.07
2018-03-12T01:46:41.161Z,10.09
2018-03-12T01:47:41.259Z,10.04
2018-03-12T01:48:41.352Z,9.97
2018-03-12T01:49:41.446Z,10.10
2018-03-12T01:50:41.541Z,10.04
2018-03-12T01:51:41.641Z,9.94
2018-03-12T01:52:41.737Z,10.04
2018-03-12T01:53:41.833Z,10.04
2018-03-12T01:54:41.926Z,9.93
2018-03-12T01:55:42.025Z,10.00
2018-03-12T01:56:42.118Z,10.03
2018-03-12T01:57:42.222Z,10.00
2018-03-12T01:58:42.315Z,9.85
2018-03-12T01:59:42.408Z,9.75
2018-03-12T02:00:42.510Z,9.81
2018-03-12T02:01:42.605Z,9.86
2018-03-12T02:02:42.696Z,9.86
2018-03-12T02:03:42.790Z,9.83
2018-03-12T02:04:42.887Z,9.88
2018-03-12T02:05:42.977Z,9.85
2018-03-12T02:06:43.074Z,9.78
2018-03-12T02:07:43.170Z,9.85
2018-03-12T02:08:43.262Z,9.88
2018-03-12T02:09:43.359Z,9.94
2018-03-12T02:10:43.455Z,9.91
2018-03-12T02:11:43.552Z,9.93
2018-03-12T02:12:43.649Z,10.03
2018-03-12T02:13:43.733Z,9.96
2018-03-12T02:14:43.828Z,9.86
2018-03-12T02:15:43.931Z,9.82
2018-03-12T02:16:44.023Z,9.96
2018-03-12T02:17:44.118Z,9.89
2018-03-12T02:18:44.212Z,9.91
2018-03-12T02:19:44.307Z,9.89
2018-03-12T02:20:44.400Z,10.03
2018-03-12T02:21:44.496Z,10.00
2018-03-12T02:22:44.589Z,10.03
2018-03-12T02:23:44.682Z,9.94
2018-03-12T02:24:44.795Z,10.04
2018-03-12T02:25:44.896Z,10.06
2018-03-12T02:26:44.988Z,10.00
2018-03-12T02:27:45.084Z,9.88
2018-03-12T02:28:45.177Z,9.78
2018-03-12T02:29:45.274Z,9.78
2018-03-12T02:30:45.368Z,9.68
2018-03-12T02:31:45.463Z,9.75
2018-03-12T02:32:45.559Z,9.67
2018-03-12T02:33:45.652Z,9.76
2018-03-12T02:34:45.743Z,9.76
2018-03-12T02:35:45.834Z,9.76
2018-03-12T02:36:45.942Z,9.73
2018-03-12T02:37:46.030Z,9.75
2018-03-12T02:38:46.127Z,9.82
2018-03-12T02:39:46.229Z,9.82
2018-03-12T02:40:46.318Z,9.83
2018-03-12T02:41:46.412Z,9.96
2018-03-12T02:42:46.507Z,9.93
2018-03-12T02:43:46.599Z,9.96
2018-03-12T02:44:46.691Z,9.99
2018-03-12T02:45:46.787Z,9.99
2018-03-12T02:46:46.882Z,10.04
2018-03-12T02:47:46.977Z,10.00
2018-03-12T02:48:47.067Z,9.97
2018-03-12T02:49:47.164Z,9.91
2018-03-12T02:50:47.258Z,9.94
2018-03-12T02:51:47.351Z,9.91
2018-03-12T02:52:47.447Z,10.01
2018-03-12T02:53:47.539Z,10.00
2018-03-12T02:54:47.636Z,10.00
2018-03-12T02:55:47.727Z,9.97
2018-03-12T02:56:47.818Z,9.99
2018-03-12T02:57:47.907Z,10.14
2018-03-12T02:58:48.012Z,10.04
2018-03-12T02:59:48.102Z,10.10
2018-03-12T03:00:48.196Z,10.00
2018-03-12T03:01:48.288Z,10.03
2018-03-12T03:02:48.387Z,10.06
2018-03-12T03:03:48.479Z,10.07
2018-03-12T03:04:48.574Z,10.00
2018-03-12T03:05:48.664Z,10.00
2018-03-12T03:06:48.762Z,9.97
2018-03-12T03:07:48.855Z,9.83
2018-03-12T03:08:48.949Z,9.89
2018-03-12T03:09:49.046Z,9.85
2018-03-12T03:10:49.140Z,9.86
2018-03-12T03:11:49.236Z,9.83
2018-03-12T03:12:49.331Z,9.70
2018-03-12T03:13:49.424Z,9.83
2018-03-12T03:14:49.521Z,9.67
2018-03-12T03:15:49.634Z,9.76
2018-03-12T03:16:49.729Z,9.76
2018-03-12T03:17:49.825Z,9.81
2018-03-12T03:18:49.921Z,9.78
2018-03-12T03:19:50.017Z,9.83
2018-03-12T03:20:50.110Z,9.85
2018-03-12T03:21:50.205Z,9.83
2018-03-12T03:22:50.295Z,9.89
2018-03-12T03:23:50.392Z,9.94
2018-03-12T03:24:50.483Z,10.03
2018-03-12T03:25:50.580Z,9.93
2018-03-12T03:26:50.673Z,10.00
2018-03-12T03:27:50.774Z,10.03
2018-03-12T03:28:50.866Z,9.96
2018-03-12T03:29:50.962Z,9.96
2018-03-12T03:30:51.066Z,10.00
2018-03-12T03:31:51.156Z,9.94
2018-03-12T03:32:51.249Z,9.93
2018-03-12T03:33:51.347Z,10.00
2018-03-12T03:34:51.445Z,10.03
2018-03-12T03:35:51.538Z,9.99
2018-03-12T03:36:51.634Z,9.97
2018-03-12T03:37:51.729Z,9.96
2018-03-12T03:38:51.825Z,9.99
2018-03-12T03:39:51.949Z,9.94
2018-03-12T03:40:52.043Z,10.06
2018-03-12T03:41:52.142Z,10.07
2018-03-12T03:42:52.236Z,9.93
2018-03-12T03:43:52.328Z,10.00
2018-03-12T03:44:52.423Z,10.00
2018-03-12T03:45:52.516Z,10.00
2018-03-12T03:46:52.612Z,9.97
2018-03-12T03:47:52.705Z,9.94
2018-03-12T03:48:52.799Z,10.00
2018-03-12T03:49:52.901Z,10.00
2018-03-12T03:50:52.995Z,10.00
2018-03-12T03:51:53.086Z,9.96
2018-03-12T03:52:53.185Z,10.01
2018-03-12T03:53:53.279Z,10.01
2018-03-12T03:54:53.378Z,10.01
2018-03-12T03:55:53.466Z,9.99
2018-03-12T03:56:53.561Z,10.10
2018-03-12T03:57:53.658Z,10.00
2018-03-12T03:58:53.746Z,10.03
2018-03-12T03:59:53.843Z,10.12
2018-03-12T04:00:53.922Z,9.99
2018-03-12T04:01:54.020Z,9.99
2018-03-12T04:02:54.117Z,10.06
2018-03-12T04:03:54.210Z,9.99
2018-03-12T04:04:54.303Z,10.01
2018-03-12T04:05:54.403Z,9.93
2018-03-12T04:06:54.498Z,9.99
2018-03-12T04:07:54.593Z,10.00
2018-03-12T04:08:54.688Z,10.01
2018-03-12T04:09:54.783Z,10.00
2018-03-12T04:10:54.880Z,9.97
2018-03-12T04:11:54.971Z,10.01
2018-03-12T04:12:55.087Z,10.01
2018-03-12T04:13:55.192Z,10.04
2018-03-12T04:14:55.281Z,10.03
2018-03-12T04:15:55.373Z,10.03
2018-03-12T04:16:55.467Z,9.97
2018-03-12T04:17:55.563Z,10.01
2018-03-12T04:18:55.661Z,9.99
2018-03-12T04:19:55.760Z,10.01
2018-03-12T04:20:55.852Z,10.09
2018-03-12T04:21:55.938Z,10.03
2018-03-12T04:22:56.030Z,9.99
2018-03-12T04:23:56.128Z,9.91
2018-03-12T04:24:56.223Z,10.04
2018-03-12T04:25:56.320Z,9.99
2018-03-12T04:26:56.411Z,10.00
2018-03-12T04:27:56.501Z,9.99
2018-03-12T04:28:56.593Z,9.97
2018-03-12T04:29:56.688Z,10.09
2018-03-12T04:30:56.782Z,10.03
2018-03-12T04:31:56.898Z,10.04
2018-03-12T04:32:56.973Z,9.99
2018-03-12T04:33:57.069Z,10.00
2018-03-12T04:34:57.164Z,10.04
2018-03-12T04:35:57.258Z,10.09
2018-03-12T04:36:57.352Z,10.04
2018-03-12T04:37:57.444Z,10.01
2018-03-12T04:38:57.532Z,10.03
2018-03-12T04:39:57.626Z,9.96
2018-03-12T04:40:57.722Z,10.01
2018-03-12T04:41:57.810Z,10.07
2018-03-12T04:42:57.908Z,10.03
2018-03-12T04:43:57.973Z,10.09
2018-03-12T04:44:58.068Z,9.89
2018-03-12T04:45:58.161Z,9.86
2018-03-12T04:46:58.256Z,9.94
2018-03-12T04:47:58.349Z,9.94
2018-03-12T04:48:58.445Z,9.97
2018-03-12T04:49:58.544Z,9.94
2018-03-12T04:50:58.635Z,10.03
2018-03-12T04:51:58.738Z,9.99
2018-03-12T04:52:58.824Z,9.94
2018-03-12T04:53:58.915Z,9.91
2018-03-12T04:54:59.006Z,9.83
2018-03-12T04:55:59.100Z,10.00
2018-03-12T04:56:59.196Z,9.89
2018-03-12T04:57:59.293Z,10.00
2018-03-12T04:58:59.395Z,9.99
2018-03-12T04:59:59.489Z,9.96
2018-03-12T05:00:59.577Z,10.00
2018-03-12T05:01:59.674Z,10.04
2018-03-12T05:02:59.769Z,10.00
2018-03-12T05:03:59.852Z,9.97
2018-03-12T05:04:59.941Z,9.96
2018-03-12T05:06:00.034Z,9.88
2018-03-12T05:07:00.193Z,9.93
2018-03-12T05:08:00.225Z,10.01
2018-03-12T05:09:00.321Z,10.00
2018-03-12T05:10:00.418Z,10.00
2018-03-12T05:11:00.514Z,10.03
2018-03-12T05:12:00.601Z,9.97
2018-03-12T05:13:00.703Z,10.09
2018-03-12T05:14:00.798Z,10.04
2018-03-12T05:15:00.893Z,9.99
2018-03-12T05:16:00.988Z,9.99
2018-03-12T05:17:01.083Z,10.03
2018-03-12T05:18:01.177Z,10.04
2018-03-12T05:19:01.278Z,10.06
2018-03-12T05:20:01.374Z,10.01
2018-03-12T05:21:01.470Z,9.96
2018-03-12T05:22:01.565Z,9.93
2018-03-12T05:23:01.658Z,9.86
2018-03-12T05:24:01.751Z,9.89
2018-03-12T05:25:01.847Z,9.94
2018-03-12T05:26:01.979Z,9.91
2018-03-12T05:27:02.045Z,10.00
2018-03-12T05:28:02.135Z,9.97
2018-03-12T05:29:02.234Z,9.97
2018-03-12T05:30:02.326Z,9.99
2018-03-12T05:31:02.430Z,9.93
2018-03-12T05:32:02.516Z,9.99
2018-03-12T05:33:02.609Z,9.94
2018-03-12T05:34:02.701Z,9.99
2018-03-12T05:35:02.802Z,9.99
2018-03-12T05:36:02.895Z,10.00
2018-03-12T05:37:02.994Z,9.99
2018-03-12T05:38:03.099Z,10.01
2018-03-12T05:39:03.191Z,9.91
2018-03-12T05:40:03.287Z,10.04
2018-03-12T05:41:03.382Z,10.06
2018-03-12T05:42:03.479Z,9.99
2018-03-12T05:43:03.576Z,9.99
2018-03-12T05:44:03.673Z,10.06
2018-03-12T05:45:03.762Z,10.06
2018-03-12T05:46:03.870Z,10.04
2018-03-12T05:47:03.963Z,10.06
2018-03-12T05:48:04.065Z,10.03
2018-03-12T05:49:04.154Z,10.03
2018-03-12T05:50:04.252Z,10.06
2018-03-12T05:51:04.352Z,10.12
2018-03-12T05:52:04.456Z,10.14
2018-03-12T05:53:04.553Z,10.06
2018-03-12T05:54:04.649Z,10.06
2018-03-12T05:55:04.746Z,10.03
2018-03-12T05:56:04.837Z,10.12
2018-03-12T05:57:04.932Z,10.09
2018-03-12T05:58:05.034Z,10.09
2018-03-12T05:59:05.128Z,10.09
2018-03-12T06:00:05.226Z,10.07
2018-03-12T06:01:05.316Z,10.06
2018-03-12T06:02:05.415Z,10.10
2018-03-12T06:03:05.512Z,10.10
2018-03-12T06:04:05.605Z,10.14
2018-03-12T06:05:05.692Z,10.10
2018-03-12T06:06:05.802Z,10.04
2018-03-12T06:07:05.901Z,10.07
2018-03-12T06:08:05.996Z,10.09
2018-03-12T06:09:06.099Z,10.07
2018-03-12T06:10:06.194Z,10.06
2018-03-12T06:11:06.286Z,10.03
2018-03-12T06:12:06.381Z,10.07
2018-03-12T06:13:06.476Z,10.06
2018-03-12T06:14:06.570Z,10.04
2018-03-12T06:15:06.669Z,10.07
2018-03-12T06:16:06.832Z,10.10
2018-03-12T06:17:06.879Z,10.06
2018-03-12T06:18:06.965Z,10.15
2018-03-12T06:19:07.059Z,10.07
2018-03-12T06:20:07.151Z,10.10
2018-03-12T06:21:07.245Z,10.22
2018-03-12T06:22:07.338Z,10.14
2018-03-12T06:23:07.422Z,10.09
2018-03-12T06:24:07.540Z,10.18
2018-03-12T06:25:07.631Z,10.19
2018-03-12T06:26:07.726Z,10.09
2018-03-12T06:27:07.809Z,10.18
2018-03-12T06:28:07.904Z,10.28
2018-03-12T06:29:08.000Z,10.17
2018-03-12T06:30:08.099Z,10.25
2018-03-12T06:31:08.198Z,10.15
2018-03-12T06:32:08.288Z,10.19
2018-03-12T06:33:08.384Z,10.21
2018-03-12T06:34:08.480Z,10.19
2018-03-12T06:35:08.578Z,10.18
2018-03-12T06:36:08.697Z,10.18
2018-03-12T06:37:08.791Z,10.26
2018-03-12T06:38:08.892Z,10.15
2018-03-12T06:39:08.990Z,10.12
2018-03-12T06:40:09.095Z,9.99
2018-03-12T06:41:09.178Z,10.01
2018-03-12T06:42:09.298Z,10.00
2018-03-12T06:43:09.413Z,9.99
2018-03-12T06:44:09.475Z,10.12
2018-03-12T06:45:09.572Z,10.07
2018-03-12T06:46:09.676Z,10.24
2018-03-12T06:47:09.759Z,10.19
2018-03-12T06:48:09.853Z,10.24
2018-03-12T06:49:09.947Z,10.22
2018-03-12T06:50:10.044Z,10.24
2018-03-12T06:51:10.142Z,10.14
2018-03-12T06:52:10.235Z,10.04
2018-03-12T06:53:10.331Z,10.04
2018-03-12T06:54:10.435Z,9.93
2018-03-12T06:55:10.530Z,10.01
2018-03-12T06:56:10.642Z,10.07
2018-03-12T06:57:10.738Z,10.09
2018-03-12T06:58:10.837Z,10.14
2018-03-12T06:59:10.932Z,10.19
2018-03-12T07:00:11.028Z,10.30
2018-03-12T07:01:11.125Z,10.28
2018-03-12T07:02:11.223Z,10.33
2018-03-12T07:03:11.320Z,10.42
2018-03-12T07:04:11.423Z,10.36
2018-03-12T07:05:11.532Z,10.36
2018-03-12T07:06:11.630Z,10.42
2018-03-12T07:07:11.725Z,10.43
2018-03-12T07:08:11.820Z,10.34
2018-03-12T07:09:11.916Z,10.42
2018-03-12T07:10:12.012Z,10.44
2018-03-12T07:11:12.142Z,10.40
2018-03-12T07:12:12.205Z,10.40
2018-03-12T07:13:12.299Z,10.40
2018-03-12T07:14:12.388Z,10.53
2018-03-12T07:15:12.486Z,10.47
2018-03-12T07:16:12.580Z,10.43
2018-03-12T07:17:12.677Z,10.43
2018-03-12T07:18:12.776Z,10.53
2018-03-12T07:19:12.870Z,10.53
2018-03-12T07:20:12.967Z,10.55
2018-03-12T07:21:13.063Z,10.47
2018-03-12T07:22:13.158Z,10.62
2018-03-12T07:23:13.260Z,10.55
2018-03-12T07:24:13.349Z,10.59
2018-03-12T07:25:13.446Z,10.56
2018-03-12T07:26:13.541Z,10.58
2018-03-12T07:27:13.636Z,10.60
2018-03-12T07:28:13.732Z,10.60
2018-03-12T07:29:13.829Z,10.68
2018-03-12T07:30:13.929Z,10.68
2018-03-12T07:31:14.028Z,10.68
2018-03-12T07:32:14.120Z,10.73
2018-03-12T07:33:14.221Z,10.71
2018-03-12T07:34:14.318Z,10.84
2018-03-12T07:35:14.413Z,10.78
2018-03-12T07:36:14.514Z,10.81
2018-03-12T07:37:14.606Z,10.81
2018-03-12T07:38:14.701Z,10.84
2018-03-12T07:39:14.796Z,10.89
2018-03-12T07:40:14.889Z,10.91
2018-03-12T07:41:14.986Z,10.99
2018-03-12T07:42:15.087Z,10.99
2018-03-12T07:43:15.181Z,10.95
2018-03-12T07:44:15.276Z,10.95
2018-03-12T07:45:15.385Z,11.02
2018-03-12T07:46:15.480Z,11.09
2018-03-12T07:47:15.581Z,10.94
2018-03-12T07:48:15.711Z,11.03
2018-03-12T07:49:15.772Z,11.21
2018-03-12T07:50:15.870Z,11.19
2018-03-12T07:51:15.968Z,11.17
2018-03-12T07:52:16.060Z,11.27
2018-03-12T07:53:16.152Z,11.16
2018-03-12T07:54:16.252Z,11.25
2018-03-12T07:55:16.368Z,11.24
2018-03-12T07:56:16.427Z,11.29
2018-03-12T07:57:16.518Z,11.17
2018-03-12T07:58:16.614Z,11.21
2018-03-12T07:59:16.714Z,11.21
2018-03-12T08:00:16.804Z,11.36
2018-03-12T08:01:16.933Z,11.29
2018-03-12T08:02:16.997Z,11.36
2018-03-12T08:03:17.093Z,11.31
2018-03-12T08:04:17.188Z,11.14
2018-03-12T08:05:17.278Z,11.21
2018-03-12T08:06:17.377Z,11.29
2018-03-12T08:07:17.471Z,11.38
2018-03-12T08:08:17.565Z,11.21
2018-03-12T08:09:17.662Z,11.32
2018-03-12T08:10:17.752Z,11.27
2018-03-12T08:11:17.847Z,11.32
2018-03-12T08:12:17.946Z,11.35
2018-03-12T08:13:18.043Z,11.36
2018-03-12T08:14:18.140Z,11.34
2018-03-12T08:15:18.234Z,11.17
2018-03-12T08:16:18.386Z,11.28
2018-03-12T08:17:18.428Z,11.31
2018-03-12T08:18:18.533Z,11.31
2018-03-12T08:19:18.628Z,11.34
2018-03-12T08:20:18.724Z,11.34
2018-03-12T08:21:18.822Z,11.31
2018-03-12T08:22:18.920Z,11.31
2018-03-12T08:23:19.020Z,11.44
2018-03-12T08:24:19.119Z,11.44
2018-03-12T08:25:19.214Z,11.47
2018-03-12T08:26:19.310Z,11.53
2018-03-12T08:27:19.403Z,11.47
2018-03-12T08:28:19.497Z,11.44
2018-03-12T08:29:19.592Z,11.46
2018-03-12T08:30:19.693Z,11.59
2018-03-12T08:31:19.790Z,11.57
2018-03-12T08:32:19.881Z,11.74
2018-03-12T08:33:20.030Z,11.64
2018-03-12T08:34:20.079Z,11.78
2018-03-12T08:35:20.178Z,11.83
2018-03-12T08:36:20.293Z,11.83
2018-03-12T08:37:20.366Z,11.77
2018-03-12T08:38:20.466Z,11.82
2018-03-12T08:39:20.562Z,11.90
2018-03-12T08:40:20.656Z,11.87
2018-03-12T08:41:20.757Z,11.86
2018-03-12T08:42:20.850Z,11.86
2018-03-12T08:43:20.946Z,11.89
2018-03-12T08:44:21.043Z,11.65
2018-03-12T08:45:21.141Z,11.89
2018-03-12T08:46:21.249Z,11.82
2018-03-12T08:47:21.329Z,11.77
2018-03-12T08:48:21.425Z,11.82
2018-03-12T08:49:21.522Z,11.83
2018-03-12T08:50:21.616Z,11.74
2018-03-12T08:51:21.731Z,11.70
2018-03-12T08:52:21.809Z,11.67
2018-03-12T08:53:21.902Z,11.67
2018-03-12T08:54:22.001Z,11.78
2018-03-12T08:55:22.095Z,11.75
2018-03-12T08:56:22.196Z,11.74
2018-03-12T08:57:22.293Z,11.67
2018-03-12T08:58:22.388Z,11.68
2018-03-12T08:59:22.484Z,11.62
2018-03-12T09:00:22.583Z,11.64
2018-03-12T09:01:22.674Z,11.62
2018-03-12T09:02:22.769Z,11.59
2018-03-12T09:03:22.865Z,11.56
2018-03-12T09:04:22.969Z,11.65
2018-03-12T09:05:23.061Z,11.68
2018-03-12T09:06:23.158Z,11.68
2018-03-12T09:07:23.256Z,11.67
2018-03-12T09:08:23.353Z,11.64
2018-03-12T09:09:23.447Z,11.65
2018-03-12T09:10:23.568Z,11.67
2018-03-12T09:11:23.666Z,11.71
2018-03-12T09:12:23.763Z,11.62
2018-03-12T09:13:23.860Z,11.61
2018-03-12T09:14:23.968Z,11.64
2018-03-12T09:15:24.068Z,11.61
2018-03-12T09:16:24.161Z,11.68
2018-03-12T09:17:24.258Z,11.59
2018-03-12T09:18:24.354Z,11.61
2018-03-12T09:19:24.453Z,11.68
2018-03-12T09:20:24.550Z,11.75
2018-03-12T09:21:24.648Z,11.72
2018-03-12T09:22:24.746Z,11.78
2018-03-12T09:23:24.845Z,11.74
2018-03-12T09:24:24.943Z,11.75
2018-03-12T09:25:25.040Z,11.75
2018-03-12T09:26:25.137Z,11.86
2018-03-12T09:27:25.239Z,11.89
2018-03-12T09:28:25.338Z,11.85
2018-03-12T09:29:25.431Z,11.86
2018-03-12T09:30:25.552Z,11.85
2018-03-12T09:31:25.622Z,11.83
2018-03-12T09:32:25.722Z,11.83
2018-03-12T09:33:25.821Z,11.86
2018-03-12T09:34:25.917Z,11.78
2018-03-12T09:35:26.015Z,11.87
2018-03-12T09:36:26.112Z,11.85
2018-03-12T09:37:26.206Z,11.83
2018-03-12T09:38:26.303Z,11.85
2018-03-12T09:39:26.398Z,11.93
2018-03-12T09:40:26.496Z,11.78
2018-03-12T09:41:26.608Z,11.87
2018-03-12T09:42:26.706Z,11.83
2018-03-12T09:43:26.798Z,11.82
2018-03-12T09:44:26.894Z,11.80
2018-03-12T09:45:26.992Z,11.87
2018-03-12T09:46:27.090Z,11.82
2018-03-12T09:47:27.181Z,11.96
2018-03-12T09:48:27.277Z,11.97
2018-03-12T09:49:27.375Z,11.97
2018-03-12T09:50:27.468Z,12.02
2018-03-12T09:51:27.569Z,12.11
2018-03-12T09:52:27.659Z,12.16
2018-03-12T09:53:27.772Z,12.20
2018-03-12T09:54:27.861Z,12.30
2018-03-12T09:55:27.953Z,12.29
2018-03-12T09:56:28.053Z,12.37
2018-03-12T09:57:28.149Z,12.44
2018-03-12T09:58:28.244Z,12.34
2018-03-12T09:59:28.341Z,12.45
2018-03-12T10:00:28.440Z,12.48
2018-03-12T10:01:28.539Z,12.27
2018-03-12T10:02:28.635Z,12.38
2018-03-12T10:03:28.732Z,12.57
2018-03-12T10:04:28.825Z,12.59
2018-03-12T10:05:28.919Z,12.45
2018-03-12T10:06:29.020Z,12.57
2018-03-12T10:07:29.118Z,12.57
2018-03-12T10:08:29.217Z,12.62
2018-03-12T10:09:29.316Z,12.63
2018-03-12T10:10:29.412Z,12.69
2018-03-12T10:11:29.512Z,12.78
2018-03-12T10:12:29.605Z,12.88
2018-03-12T10:13:29.711Z,12.89
2018-03-12T10:14:29.817Z,12.84
2018-03-12T10:15:29.909Z,12.96
2018-03-12T10:16:30.004Z,12.96
2018-03-12T10:17:30.109Z,12.97
2018-03-12T10:18:30.202Z,12.97
2018-03-12T10:19:30.304Z,12.97
2018-03-12T10:20:30.398Z,12.96
2018-03-12T10:21:30.495Z,13.00
2018-03-12T10:22:30.594Z,12.95
2018-03-12T10:23:30.690Z,13.04
2018-03-12T10:24:30.793Z,13.06
2018-03-12T10:25:30.888Z,13.04
2018-03-12T10:26:30.990Z,12.93
2018-03-12T10:27:31.086Z,13.07
2018-03-12T10:28:31.179Z,13.09
2018-03-12T10:29:31.279Z,13.18
2018-03-12T10:30:31.380Z,13.17
2018-03-12T10:31:31.484Z,13.17
2018-03-12T10:32:31.584Z,13.22
2018-03-12T10:33:31.683Z,13.18
2018-03-12T10:34:31.790Z,13.29
2018-03-12T10:35:31.886Z,13.11
2018-03-12T10:36:31.983Z,13.25
2018-03-12T10:37:32.084Z,13.38
2018-03-12T10:38:32.181Z,13.43
2018-03-12T10:39:32.283Z,13.43
2018-03-12T10:40:32.379Z,13.32
2018-03-12T10:41:32.474Z,13.46
2018-03-12T10:42:32.601Z,13.43
2018-03-12T10:43:32.694Z,13.43
2018-03-12T10:44:32.796Z,13.55
2018-03-12T10:45:32.899Z,13.51
2018-03-12T10:46:32.999Z,13.58
2018-03-12T10:47:33.098Z,13.51
2018-03-12T10:48:33.199Z,13.40
2018-03-12T10:52:05.379Z,13.44
2018-03-12T10:53:05.482Z,13.47
2018-03-12T10:54:05.575Z,13.47
2018-03-12T10:55:05.687Z,13.25
2018-03-12T10:56:05.791Z,13.21
2018-03-12T10:57:05.884Z,13.25
2018-03-12T10:58:05.983Z,13.41
2018-03-12T10:59:06.079Z,13.52
2018-03-12T11:00:06.179Z,13.61
2018-03-12T11:01:06.280Z,13.63
2018-03-12T11:02:06.374Z,13.70
2018-03-12T11:03:06.470Z,13.79
2018-03-12T11:04:06.569Z,13.56
2018-03-12T11:05:06.665Z,13.69
2018-03-12T11:06:06.762Z,13.70
2018-03-12T11:07:06.860Z,13.58
2018-03-12T11:08:06.968Z,13.54
2018-03-12T11:09:07.055Z,13.43
2018-03-12T11:10:07.157Z,13.43
2018-03-12T11:11:07.321Z,13.54
2018-03-12T11:12:07.377Z,13.58
2018-03-12T11:13:07.479Z,13.55
2018-03-12T11:14:07.579Z,13.61
2018-03-12T11:15:07.674Z,13.49
2018-03-12T11:16:07.777Z,13.59
2018-03-12T11:17:07.885Z,13.43
2018-03-12T11:18:07.975Z,13.46
2018-03-12T11:19:08.074Z,13.51
2018-03-12T11:20:08.181Z,13.46
2018-03-12T11:21:08.279Z,13.51
2018-03-12T11:22:08.375Z,13.47
2018-03-12T11:23:08.477Z,13.52
2018-03-12T11:24:08.584Z,13.58
2018-03-12T11:25:08.688Z,13.37
2018-03-12T11:26:08.791Z,13.40
2018-03-12T11:27:08.892Z,13.43
2018-03-12T11:28:08.992Z,13.43
2018-03-12T11:29:09.088Z,13.44
2018-03-12T11:30:09.189Z,13.41
2018-03-12T11:31:09.288Z,13.47
2018-03-12T11:32:09.392Z,13.54
2018-03-12T11:33:09.485Z,13.51
2018-03-12T11:34:09.584Z,13.41
2018-03-12T11:35:10.428Z,13.43
2018-03-12T11:36:09.887Z,13.43
2018-03-12T11:37:09.907Z,13.30
2018-03-12T11:38:10.003Z,13.07
2018-03-12T11:39:10.104Z,13.14
2018-03-12T11:40:10.209Z,13.21
2018-03-12T11:41:10.308Z,13.04
2018-03-12T11:42:10.407Z,13.11
2018-03-12T11:43:10.509Z,12.96
2018-03-12T11:44:10.607Z,13.04
2018-03-12T11:45:10.703Z,12.89
2018-03-12T11:46:10.815Z,12.89
2018-03-12T11:47:10.906Z,13.02
2018-03-12T11:48:11.008Z,12.93
2018-03-12T11:49:11.103Z,12.67
2018-03-12T11:50:11.201Z,12.67
2018-03-12T11:51:11.299Z,12.67
2018-03-12T11:52:11.394Z,12.48
2018-03-12T11:53:11.488Z,12.51
2018-03-12T11:54:11.589Z,12.52
2018-03-12T11:55:11.686Z,12.69
2018-03-12T11:56:11.801Z,12.71
2018-03-12T11:57:11.897Z,12.78
2018-03-12T11:58:12.008Z,12.74
2018-03-12T11:59:12.105Z,12.82
2018-03-12T12:00:12.202Z,12.96
2018-03-12T12:01:12.299Z,12.92
2018-03-12T12:02:12.398Z,12.95
2018-03-12T12:03:12.509Z,12.77
2018-03-12T12:04:12.631Z,12.84
2018-03-12T12:05:12.722Z,12.93
2018-03-12T12:06:12.825Z,12.95
2018-03-12T12:07:12.922Z,13.09
2018-03-12T12:08:13.015Z,13.18
2018-03-12T12:09:13.111Z,13.22
2018-03-12T12:10:13.224Z,13.22
2018-03-12T12:11:13.322Z,13.37
2018-03-12T12:12:13.422Z,13.41
2018-03-12T12:13:13.517Z,13.37
2018-03-12T12:14:13.609Z,13.62
2018-03-12T12:15:13.709Z,13.58
2018-03-12T12:16:13.802Z,13.59
2018-03-12T12:17:13.900Z,13.65
2018-03-12T12:18:13.993Z,13.88
2018-03-12T12:19:14.095Z,13.88
2018-03-12T12:20:14.195Z,13.96
2018-03-12T12:21:14.292Z,13.84
2018-03-12T12:22:14.385Z,14.02
2018-03-12T12:23:14.486Z,14.07
2018-03-12T12:24:14.582Z,14.02
2018-03-12T12:25:14.679Z,13.91
2018-03-12T12:26:14.775Z,13.77
2018-03-12T12:27:14.876Z,13.71
2018-03-12T12:28:14.976Z,13.84
2018-03-12T12:29:15.099Z,13.87
2018-03-12T12:30:15.193Z,13.87
2018-03-12T12:31:15.272Z,13.89
2018-03-12T12:32:15.367Z,13.96
2018-03-12T12:33:15.472Z,13.99
2018-03-12T12:34:15.562Z,13.89
2018-03-12T12:35:15.655Z,14.02
2018-03-12T12:36:15.754Z,13.98
2018-03-12T12:37:15.872Z,13.94
2018-03-12T12:38:15.979Z,13.96
2018-03-12T12:39:16.077Z,14.02
2018-03-12T12:40:16.182Z,14.12
2018-03-12T12:41:16.275Z,13.95
2018-03-12T12:42:16.386Z,13.89
2018-03-12T12:43:16.486Z,14.09
2018-03-12T12:44:16.558Z,13.92
2018-03-12T12:45:16.659Z,13.62
2018-03-12T12:46:16.759Z,13.55
2018-03-12T12:47:16.895Z,13.69
2018-03-12T12:48:16.961Z,13.76
2018-03-12T12:49:17.039Z,13.98
2018-03-12T12:50:17.121Z,13.92
2018-03-12T12:51:17.233Z,13.58
2018-03-12T12:52:17.345Z,13.52
2018-03-12T12:53:17.411Z,13.55
2018-03-12T12:54:17.555Z,13.46
2018-03-12T12:55:17.602Z,13.43
2018-03-12T12:56:17.703Z,13.58
2018-03-12T12:57:17.791Z,13.44
2018-03-12T12:58:17.925Z,13.55
2018-03-12T12:59:18.015Z,13.32
2018-03-12T13:00:18.146Z,13.49
2018-03-12T13:01:18.949Z,13.41
2018-03-12T13:02:18.331Z,13.54